Kefallina, Greece
Current Conditions -  °F | °C
As of 10:20 PM on Friday 21 Nov 2014 (Local Time) from LGZA Reporting Station
NA  
Wind Chill: 50°   Ceiling: NA
Heat Index: 50°   Visibility: NA
Dew Point: 46°   Wind: 2mph
Humidity: 87%   Direction: NA
Pressure: 30.12"   Gusts: NA
Location:  38.12°N, 20.5°E
Report Text: LGZA 211920Z AUTO VRB02KT //// // ////// 10/08 Q1020 RE//
Loading
Personal Weather Stations






























Interactive Weather Map New forecast layout! Learn more

10-Day Weather Forecast

Advertisements
Track Severe Weather on mobile